sensor_id;sensor_type;location;lat;lon;timestamp;temperature;humidity
51613;DHT22;37694;51.748;14.326;2023-03-14T00:00:21;22.50;44.70
51613;DHT22;37694;51.748;14.326;2023-03-14T00:02:51;22.50;44.60
51613;DHT22;37694;51.748;14.326;2023-03-14T00:05:17;22.50;44.50
51613;DHT22;37694;51.748;14.326;2023-03-14T00:07:42;22.50;44.70
51613;DHT22;37694;51.748;14.326;2023-03-14T00:10:10;22.50;45.00
51613;DHT22;37694;51.748;14.326;2023-03-14T00:12:35;22.40;44.80
51613;DHT22;37694;51.748;14.326;2023-03-14T00:15:01;22.40;44.70
51613;DHT22;37694;51.748;14.326;2023-03-14T00:17:29;22.40;44.50
51613;DHT22;37694;51.748;14.326;2023-03-14T00:19:54;22.40;44.70
51613;DHT22;37694;51.748;14.326;2023-03-14T00:22:20;22.40;44.80
51613;DHT22;37694;51.748;14.326;2023-03-14T00:24:46;22.40;44.70
51613;DHT22;37694;51.748;14.326;2023-03-14T00:27:12;22.40;44.90
51613;DHT22;37694;51.748;14.326;2023-03-14T00:29:37;22.40;44.80
51613;DHT22;37694;51.748;14.326;2023-03-14T00:32:03;22.30;44.80
51613;DHT22;37694;51.748;14.326;2023-03-14T00:34:32;22.30;45.10
51613;DHT22;37694;51.748;14.326;2023-03-14T00:36:58;22.30;45.10
51613;DHT22;37694;51.748;14.326;2023-03-14T00:39:23;22.30;45.20
51613;DHT22;37694;51.748;14.326;2023-03-14T00:41:49;22.30;44.90
51613;DHT22;37694;51.748;14.326;2023-03-14T00:44:14;22.30;44.90
51613;DHT22;37694;51.748;14.326;2023-03-14T00:46:40;22.30;44.70
51613;DHT22;37694;51.748;14.326;2023-03-14T00:49:05;22.30;45.00
51613;DHT22;37694;51.748;14.326;2023-03-14T00:51:31;22.30;44.70
51613;DHT22;37694;51.748;14.326;2023-03-14T00:53:56;22.30;44.90
51613;DHT22;37694;51.748;14.326;2023-03-14T00:56:22;22.30;45.00
51613;DHT22;37694;51.748;14.326;2023-03-14T00:58:47;22.30;45.10
51613;DHT22;37694;51.748;14.326;2023-03-14T01:01:14;22.30;44.70
51613;DHT22;37694;51.748;14.326;2023-03-14T01:03:40;22.30;44.80
51613;DHT22;37694;51.748;14.326;2023-03-14T01:06:06;22.30;44.80
51613;DHT22;37694;51.748;14.326;2023-03-14T01:08:32;22.20;44.80
51613;DHT22;37694;51.748;14.326;2023-03-14T01:10:57;22.20;44.80
51613;DHT22;37694;51.748;14.326;2023-03-14T01:13:23;22.20;44.80
51613;DHT22;37694;51.748;14.326;2023-03-14T01:15:48;22.20;44.80
51613;DHT22;37694;51.748;14.326;2023-03-14T01:18:14;22.20;45.10
51613;DHT22;37694;51.748;14.326;2023-03-14T01:20:39;22.20;45.10
51613;DHT22;37694;51.748;14.326;2023-03-14T01:23:05;22.20;44.80
51613;DHT22;37694;51.748;14.326;2023-03-14T01:25:30;22.20;45.10
51613;DHT22;37694;51.748;14.326;2023-03-14T01:27:56;22.10;44.70
51613;DHT22;37694;51.748;14.326;2023-03-14T01:30:22;22.10;45.00
51613;DHT22;37694;51.748;14.326;2023-03-14T01:32:47;22.10;45.00
51613;DHT22;37694;51.748;14.326;2023-03-14T01:35:13;22.10;44.90
51613;DHT22;37694;51.748;14.326;2023-03-14T01:37:38;22.10;45.00
51613;DHT22;37694;51.748;14.326;2023-03-14T01:40:04;22.10;44.90
51613;DHT22;37694;51.748;14.326;2023-03-14T01:42:31;22.10;45.10
51613;DHT22;37694;51.748;14.326;2023-03-14T01:44:57;22.10;44.90
51613;DHT22;37694;51.748;14.326;2023-03-14T01:47:23;22.10;45.00
51613;DHT22;37694;51.748;14.326;2023-03-14T01:49:51;22.10;45.00
51613;DHT22;37694;51.748;14.326;2023-03-14T01:54:48;22.00;45.10
51613;DHT22;37694;51.748;14.326;2023-03-14T01:57:16;22.00;45.00
51613;DHT22;37694;51.748;14.326;2023-03-14T01:59:52;22.00;45.30
51613;DHT22;37694;51.748;14.326;2023-03-14T02:02:19;22.00;45.10
51613;DHT22;37694;51.748;14.326;2023-03-14T02:04:45;22.00;45.00
51613;DHT22;37694;51.748;14.326;2023-03-14T02:07:15;22.00;45.00
51613;DHT22;37694;51.748;14.326;2023-03-14T02:09:41;22.00;45.10
51613;DHT22;37694;51.748;14.326;2023-03-14T02:12:08;22.00;45.00
51613;DHT22;37694;51.748;14.326;2023-03-14T02:14:34;22.00;45.00
51613;DHT22;37694;51.748;14.326;2023-03-14T02:17:01;22.00;45.10
51613;DHT22;37694;51.748;14.326;2023-03-14T02:22:12;21.90;45.20
51613;DHT22;37694;51.748;14.326;2023-03-14T02:29:36;21.90;45.10
51613;DHT22;37694;51.748;14.326;2023-03-14T02:32:04;21.90;44.90
51613;DHT22;37694;51.748;14.326;2023-03-14T02:34:30;21.90;45.10
51613;DHT22;37694;51.748;14.326;2023-03-14T02:36:56;21.90;45.10
51613;DHT22;37694;51.748;14.326;2023-03-14T02:39:24;21.90;45.00
51613;DHT22;37694;51.748;14.326;2023-03-14T02:41:51;21.90;45.00
51613;DHT22;37694;51.748;14.326;2023-03-14T02:44:17;21.90;45.10
51613;DHT22;37694;51.748;14.326;2023-03-14T02:46:42;21.90;45.00
51613;DHT22;37694;51.748;14.326;2023-03-14T02:49:08;21.90;45.10
51613;DHT22;37694;51.748;14.326;2023-03-14T02:51:35;21.90;45.20
51613;DHT22;37694;51.748;14.326;2023-03-14T02:54:01;21.90;45.10
51613;DHT22;37694;51.748;14.326;2023-03-14T02:56:27;21.90;45.10
51613;DHT22;37694;51.748;14.326;2023-03-14T02:58:52;21.80;45.10
51613;DHT22;37694;51.748;14.326;2023-03-14T03:01:18;21.80;45.00
51613;DHT22;37694;51.748;14.326;2023-03-14T03:03:44;21.90;45.10
51613;DHT22;37694;51.748;14.326;2023-03-14T03:06:09;21.80;45.00
51613;DHT22;37694;51.748;14.326;2023-03-14T03:08:35;21.90;45.00
51613;DHT22;37694;51.748;14.326;2023-03-14T03:11:01;21.80;45.00
51613;DHT22;37694;51.748;14.326;2023-03-14T03:13:26;21.80;45.10
51613;DHT22;37694;51.748;14.326;2023-03-14T03:15:52;21.80;45.20
51613;DHT22;37694;51.748;14.326;2023-03-14T03:18:18;21.80;45.10
51613;DHT22;37694;51.748;14.326;2023-03-14T03:20:43;21.80;45.50
51613;DHT22;37694;51.748;14.326;2023-03-14T03:23:09;21.80;45.30
51613;DHT22;37694;51.748;14.326;2023-03-14T03:25:34;21.80;45.60
51613;DHT22;37694;51.748;14.326;2023-03-14T03:28:00;21.80;45.50
51613;DHT22;37694;51.748;14.326;2023-03-14T03:30:25;21.80;45.30
51613;DHT22;37694;51.748;14.326;2023-03-14T03:32:51;21.80;45.50
51613;DHT22;37694;51.748;14.326;2023-03-14T03:35:17;21.80;45.30
51613;DHT22;37694;51.748;14.326;2023-03-14T03:37:42;21.70;45.60
51613;DHT22;37694;51.748;14.326;2023-03-14T03:40:08;21.70;45.30
51613;DHT22;37694;51.748;14.326;2023-03-14T03:42:34;21.70;45.30
51613;DHT22;37694;51.748;14.326;2023-03-14T03:45:00;21.70;45.20
51613;DHT22;37694;51.748;14.326;2023-03-14T03:47:26;21.70;45.50
51613;DHT22;37694;51.748;14.326;2023-03-14T03:49:52;21.70;45.20
51613;DHT22;37694;51.748;14.326;2023-03-14T03:52:17;21.70;45.30
51613;DHT22;37694;51.748;14.326;2023-03-14T03:54:43;21.70;45.30
51613;DHT22;37694;51.748;14.326;2023-03-14T03:57:09;21.70;45.30
51613;DHT22;37694;51.748;14.326;2023-03-14T03:59:34;21.70;45.40
51613;DHT22;37694;51.748;14.326;2023-03-14T04:02:00;21.70;45.70
51613;DHT22;37694;51.748;14.326;2023-03-14T04:04:25;21.70;45.60
51613;DHT22;37694;51.748;14.326;2023-03-14T04:06:51;21.60;45.80
51613;DHT22;37694;51.748;14.326;2023-03-14T04:09:16;21.60;45.60
51613;DHT22;37694;51.748;14.326;2023-03-14T04:11:42;21.70;45.50
51613;DHT22;37694;51.748;14.326;2023-03-14T04:14:08;21.60;45.50
51613;DHT22;37694;51.748;14.326;2023-03-14T04:16:33;21.60;45.60
51613;DHT22;37694;51.748;14.326;2023-03-14T04:18:59;21.60;45.80
51613;DHT22;37694;51.748;14.326;2023-03-14T04:21:25;21.70;45.90
51613;DHT22;37694;51.748;14.326;2023-03-14T04:23:50;21.70;45.50
51613;DHT22;37694;51.748;14.326;2023-03-14T04:26:16;21.70;45.80
51613;DHT22;37694;51.748;14.326;2023-03-14T04:28:42;21.70;46.10
51613;DHT22;37694;51.748;14.326;2023-03-14T04:31:11;21.70;46.30
51613;DHT22;37694;51.748;14.326;2023-03-14T04:33:37;21.70;46.40
51613;DHT22;37694;51.748;14.326;2023-03-14T04:36:03;21.70;46.50
51613;DHT22;37694;51.748;14.326;2023-03-14T04:38:28;21.70;46.40
51613;DHT22;37694;51.748;14.326;2023-03-14T04:40:54;21.70;46.20
51613;DHT22;37694;51.748;14.326;2023-03-14T04:43:19;21.70;46.00
51613;DHT22;37694;51.748;14.326;2023-03-14T04:45:45;21.80;45.90
51613;DHT22;37694;51.748;14.326;2023-03-14T04:48:11;21.90;45.80
51613;DHT22;37694;51.748;14.326;2023-03-14T04:50:37;21.90;45.60
51613;DHT22;37694;51.748;14.326;2023-03-14T04:53:03;22.00;45.70
51613;DHT22;37694;51.748;14.326;2023-03-14T04:55:28;22.10;45.50
51613;DHT22;37694;51.748;14.326;2023-03-14T04:57:54;22.10;45.40
51613;DHT22;37694;51.748;14.326;2023-03-14T05:00:19;22.20;45.40
51613;DHT22;37694;51.748;14.326;2023-03-14T05:02:45;22.30;45.30
51613;DHT22;37694;51.748;14.326;2023-03-14T05:05:10;22.30;45.20
51613;DHT22;37694;51.748;14.326;2023-03-14T05:07:36;22.40;45.20
51613;DHT22;37694;51.748;14.326;2023-03-14T05:10:02;22.40;45.20
51613;DHT22;37694;51.748;14.326;2023-03-14T05:12:28;22.40;45.10
51613;DHT22;37694;51.748;14.326;2023-03-14T05:14:53;22.50;45.10
51613;DHT22;37694;51.748;14.326;2023-03-14T05:17:19;22.50;45.10
51613;DHT22;37694;51.748;14.326;2023-03-14T05:19:45;22.60;45.00
51613;DHT22;37694;51.748;14.326;2023-03-14T05:22:11;22.70;44.90
51613;DHT22;37694;51.748;14.326;2023-03-14T05:24:36;22.70;44.80
51613;DHT22;37694;51.748;14.326;2023-03-14T05:27:02;22.80;44.80
51613;DHT22;37694;51.748;14.326;2023-03-14T05:29:28;22.80;44.70
51613;DHT22;37694;51.748;14.326;2023-03-14T05:31:53;22.90;44.70
51613;DHT22;37694;51.748;14.326;2023-03-14T05:34:19;23.00;44.60
51613;DHT22;37694;51.748;14.326;2023-03-14T05:36:44;23.00;44.50
51613;DHT22;37694;51.748;14.326;2023-03-14T05:39:10;23.00;44.50
51613;DHT22;37694;51.748;14.326;2023-03-14T05:41:36;23.00;44.50
51613;DHT22;37694;51.748;14.326;2023-03-14T05:44:01;23.10;44.40
51613;DHT22;37694;51.748;14.326;2023-03-14T05:46:27;23.10;44.50
51613;DHT22;37694;51.748;14.326;2023-03-14T05:48:52;23.10;44.40
51613;DHT22;37694;51.748;14.326;2023-03-14T05:51:18;23.20;45.30
51613;DHT22;37694;51.748;14.326;2023-03-14T05:53:43;23.30;44.30
51613;DHT22;37694;51.748;14.326;2023-03-14T05:56:09;23.30;44.20
51613;DHT22;37694;51.748;14.326;2023-03-14T05:58:34;23.30;44.20
51613;DHT22;37694;51.748;14.326;2023-03-14T06:01:04;23.40;44.10
51613;DHT22;37694;51.748;14.326;2023-03-14T06:03:31;23.40;44.10
51613;DHT22;37694;51.748;14.326;2023-03-14T06:05:56;23.40;44.00
51613;DHT22;37694;51.748;14.326;2023-03-14T06:08:22;23.50;44.00
51613;DHT22;37694;51.748;14.326;2023-03-14T06:10:48;23.50;44.70
51613;DHT22;37694;51.748;14.326;2023-03-14T06:13:13;23.50;43.80
51613;DHT22;37694;51.748;14.326;2023-03-14T06:15:40;23.50;43.80
51613;DHT22;37694;51.748;14.326;2023-03-14T06:18:06;23.50;43.70
51613;DHT22;37694;51.748;14.326;2023-03-14T06:20:32;23.60;43.80
51613;DHT22;37694;51.748;14.326;2023-03-14T06:22:58;23.50;43.70
51613;DHT22;37694;51.748;14.326;2023-03-14T06:25:24;23.50;43.70
51613;DHT22;37694;51.748;14.326;2023-03-14T06:27:49;23.50;44.00
51613;DHT22;37694;51.748;14.326;2023-03-14T06:30:15;23.60;46.90
51613;DHT22;37694;51.748;14.326;2023-03-14T06:32:40;23.60;48.60
51613;DHT22;37694;51.748;14.326;2023-03-14T06:35:06;23.70;48.40
51613;DHT22;37694;51.748;14.326;2023-03-14T06:37:32;23.70;49.40
51613;DHT22;37694;51.748;14.326;2023-03-14T06:39:57;23.80;49.10
51613;DHT22;37694;51.748;14.326;2023-03-14T06:42:23;23.80;49.00
51613;DHT22;37694;51.748;14.326;2023-03-14T06:44:48;23.90;48.70
51613;DHT22;37694;51.748;14.326;2023-03-14T06:47:14;23.90;48.60
51613;DHT22;37694;51.748;14.326;2023-03-14T06:49:39;23.90;48.20
51613;DHT22;37694;51.748;14.326;2023-03-14T06:52:05;23.90;48.00
51613;DHT22;37694;51.748;14.326;2023-03-14T06:54:30;23.90;47.70
51613;DHT22;37694;51.748;14.326;2023-03-14T06:56:56;23.90;48.00
51613;DHT22;37694;51.748;14.326;2023-03-14T06:59:21;23.90;48.30
51613;DHT22;37694;51.748;14.326;2023-03-14T07:01:47;23.90;48.30
51613;DHT22;37694;51.748;14.326;2023-03-14T07:04:13;23.80;48.20
51613;DHT22;37694;51.748;14.326;2023-03-14T07:08:49;23.80;52.20
51613;DHT22;37694;51.748;14.326;2023-03-14T07:11:15;23.90;48.40
51613;DHT22;37694;51.748;14.326;2023-03-14T07:13:41;23.90;47.50
51613;DHT22;37694;51.748;14.326;2023-03-14T07:16:07;23.90;47.20
51613;DHT22;37694;51.748;14.326;2023-03-14T07:18:33;23.90;47.00
51613;DHT22;37694;51.748;14.326;2023-03-14T07:20:59;23.90;46.60
51613;DHT22;37694;51.748;14.326;2023-03-14T07:23:25;23.80;46.60
51613;DHT22;37694;51.748;14.326;2023-03-14T07:25:51;23.80;46.30
51613;DHT22;37694;51.748;14.326;2023-03-14T07:28:17;23.80;46.20
51613;DHT22;37694;51.748;14.326;2023-03-14T07:30:42;23.80;46.30
51613;DHT22;37694;51.748;14.326;2023-03-14T07:33:08;23.80;46.20
51613;DHT22;37694;51.748;14.326;2023-03-14T07:35:34;23.80;46.20
51613;DHT22;37694;51.748;14.326;2023-03-14T07:37:59;23.80;46.00
51613;DHT22;37694;51.748;14.326;2023-03-14T07:40:25;23.70;45.90
51613;DHT22;37694;51.748;14.326;2023-03-14T07:42:51;23.70;45.90
51613;DHT22;37694;51.748;14.326;2023-03-14T07:45:20;23.70;45.90
51613;DHT22;37694;51.748;14.326;2023-03-14T07:47:46;23.70;45.90
51613;DHT22;37694;51.748;14.326;2023-03-14T07:50:12;23.70;45.80
51613;DHT22;37694;51.748;14.326;2023-03-14T07:52:37;23.70;45.70
51613;DHT22;37694;51.748;14.326;2023-03-14T07:55:03;23.60;45.70
51613;DHT22;37694;51.748;14.326;2023-03-14T07:57:29;23.60;45.70
51613;DHT22;37694;51.748;14.326;2023-03-14T07:59:55;23.60;45.60
51613;DHT22;37694;51.748;14.326;2023-03-14T08:02:20;23.60;45.60
51613;DHT22;37694;51.748;14.326;2023-03-14T08:04:47;23.60;45.30
51613;DHT22;37694;51.748;14.326;2023-03-14T08:07:14;23.50;45.70
51613;DHT22;37694;51.748;14.326;2023-03-14T08:09:40;23.50;45.70
51613;DHT22;37694;51.748;14.326;2023-03-14T08:12:06;23.40;45.70
51613;DHT22;37694;51.748;14.326;2023-03-14T08:14:32;23.40;45.80
51613;DHT22;37694;51.748;14.326;2023-03-14T08:16:58;23.40;45.70
51613;DHT22;37694;51.748;14.326;2023-03-14T08:19:23;23.40;45.40
51613;DHT22;37694;51.748;14.326;2023-03-14T08:21:50;23.40;45.30
51613;DHT22;37694;51.748;14.326;2023-03-14T08:24:16;23.40;45.30
51613;DHT22;37694;51.748;14.326;2023-03-14T08:26:41;23.30;45.40
51613;DHT22;37694;51.748;14.326;2023-03-14T08:29:07;23.30;45.30
51613;DHT22;37694;51.748;14.326;2023-03-14T08:31:34;23.30;45.30
51613;DHT22;37694;51.748;14.326;2023-03-14T08:34:00;23.30;45.20
51613;DHT22;37694;51.748;14.326;2023-03-14T08:36:27;23.30;45.00
51613;DHT22;37694;51.748;14.326;2023-03-14T08:38:53;23.20;44.90
51613;DHT22;37694;51.748;14.326;2023-03-14T08:41:19;23.30;44.90
51613;DHT22;37694;51.748;14.326;2023-03-14T08:43:45;23.20;44.90
51613;DHT22;37694;51.748;14.326;2023-03-14T08:46:11;23.30;44.80
51613;DHT22;37694;51.748;14.326;2023-03-14T08:48:37;23.20;44.70
51613;DHT22;37694;51.748;14.326;2023-03-14T08:51:13;23.20;44.90
51613;DHT22;37694;51.748;14.326;2023-03-14T08:53:39;23.20;44.70
51613;DHT22;37694;51.748;14.326;2023-03-14T08:56:06;23.20;44.80
51613;DHT22;37694;51.748;14.326;2023-03-14T08:58:33;23.20;44.60
51613;DHT22;37694;51.748;14.326;2023-03-14T09:00:59;23.20;44.70
51613;DHT22;37694;51.748;14.326;2023-03-14T09:03:25;23.20;44.70
51613;DHT22;37694;51.748;14.326;2023-03-14T09:05:51;23.30;44.40
51613;DHT22;37694;51.748;14.326;2023-03-14T09:08:17;23.30;44.30
51613;DHT22;37694;51.748;14.326;2023-03-14T09:10:43;23.30;44.30
51613;DHT22;37694;51.748;14.326;2023-03-14T09:13:09;23.30;44.60
51613;DHT22;37694;51.748;14.326;2023-03-14T09:15:34;23.30;44.10
51613;DHT22;37694;51.748;14.326;2023-03-14T09:18:00;23.30;44.30
51613;DHT22;37694;51.748;14.326;2023-03-14T09:20:26;23.30;44.00
51613;DHT22;37694;51.748;14.326;2023-03-14T09:22:52;23.30;44.30
51613;DHT22;37694;51.748;14.326;2023-03-14T09:25:17;23.30;44.00
51613;DHT22;37694;51.748;14.326;2023-03-14T09:27:43;23.30;44.20
51613;DHT22;37694;51.748;14.326;2023-03-14T09:30:09;23.30;43.90
51613;DHT22;37694;51.748;14.326;2023-03-14T09:32:36;23.30;44.00
51613;DHT22;37694;51.748;14.326;2023-03-14T09:35:01;23.30;43.90
51613;DHT22;37694;51.748;14.326;2023-03-14T09:37:27;23.30;43.80
51613;DHT22;37694;51.748;14.326;2023-03-14T09:39:53;23.30;43.60
51613;DHT22;37694;51.748;14.326;2023-03-14T09:42:22;23.40;43.70
51613;DHT22;37694;51.748;14.326;2023-03-14T09:44:59;23.40;43.90
51613;DHT22;37694;51.748;14.326;2023-03-14T09:47:25;23.40;44.30
51613;DHT22;37694;51.748;14.326;2023-03-14T09:49:52;23.40;43.50
51613;DHT22;37694;51.748;14.326;2023-03-14T09:52:35;23.40;43.40
51613;DHT22;37694;51.748;14.326;2023-03-14T09:55:10;23.40;43.40
51613;DHT22;37694;51.748;14.326;2023-03-14T09:57:37;23.30;43.40
51613;DHT22;37694;51.748;14.326;2023-03-14T10:00:19;23.30;43.30
51613;DHT22;37694;51.748;14.326;2023-03-14T10:02:57;23.40;43.20
51613;DHT22;37694;51.748;14.326;2023-03-14T10:05:25;23.40;43.20
51613;DHT22;37694;51.748;14.326;2023-03-14T10:07:53;23.40;43.20
51613;DHT22;37694;51.748;14.326;2023-03-14T10:10:21;23.40;43.20
51613;DHT22;37694;51.748;14.326;2023-03-14T10:12:54;23.30;43.00
51613;DHT22;37694;51.748;14.326;2023-03-14T10:15:31;23.40;43.20
51613;DHT22;37694;51.748;14.326;2023-03-14T10:18:00;23.30;43.10
51613;DHT22;37694;51.748;14.326;2023-03-14T10:20:37;23.30;43.10
51613;DHT22;37694;51.748;14.326;2023-03-14T10:25:40;23.30;43.00
51613;DHT22;37694;51.748;14.326;2023-03-14T10:28:26;23.30;43.20
51613;DHT22;37694;51.748;14.326;2023-03-14T10:30:53;23.30;42.90
51613;DHT22;37694;51.748;14.326;2023-03-14T10:33:23;23.30;43.10
51613;DHT22;37694;51.748;14.326;2023-03-14T10:36:03;23.30;43.10
51613;DHT22;37694;51.748;14.326;2023-03-14T10:38:33;23.20;42.90
51613;DHT22;37694;51.748;14.326;2023-03-14T10:40:59;23.20;43.10
51613;DHT22;37694;51.748;14.326;2023-03-14T10:43:30;23.20;42.90
51613;DHT22;37694;51.748;14.326;2023-03-14T10:46:15;23.20;42.90
51613;DHT22;37694;51.748;14.326;2023-03-14T10:48:41;23.20;42.90
51613;DHT22;37694;51.748;14.326;2023-03-14T10:51:29;23.20;42.90
51613;DHT22;37694;51.748;14.326;2023-03-14T10:54:33;23.20;43.10
51613;DHT22;37694;51.748;14.326;2023-03-14T10:57:04;23.10;42.90
51613;DHT22;37694;51.748;14.326;2023-03-14T10:59:39;23.10;43.00
51613;DHT22;37694;51.748;14.326;2023-03-14T11:08:14;23.10;42.80
51613;DHT22;37694;51.748;14.326;2023-03-14T11:10:43;23.00;42.90
51613;DHT22;37694;51.748;14.326;2023-03-14T11:27:46;23.00;43.00
51613;DHT22;37694;51.748;14.326;2023-03-14T11:30:21;23.00;42.90
51613;DHT22;37694;51.748;14.326;2023-03-14T11:38:26;22.90;42.80
51613;DHT22;37694;51.748;14.326;2023-03-14T11:40:55;22.90;42.80
51613;DHT22;37694;51.748;14.326;2023-03-14T11:45:54;22.90;42.80
51613;DHT22;37694;51.748;14.326;2023-03-14T11:48:42;22.90;42.80
51613;DHT22;37694;51.748;14.326;2023-03-14T11:51:24;22.90;42.60
51613;DHT22;37694;51.748;14.326;2023-03-14T11:54:09;22.90;42.80
51613;DHT22;37694;51.748;14.326;2023-03-14T11:56:51;22.90;42.70
51613;DHT22;37694;51.748;14.326;2023-03-14T11:59:23;22.90;42.80
51613;DHT22;37694;51.748;14.326;2023-03-14T12:02:04;22.90;42.70
51613;DHT22;37694;51.748;14.326;2023-03-14T12:04:40;23.00;42.70
51613;DHT22;37694;51.748;14.326;2023-03-14T12:07:20;22.90;42.70
51613;DHT22;37694;51.748;14.326;2023-03-14T12:09:48;22.90;42.60
51613;DHT22;37694;51.748;14.326;2023-03-14T12:12:20;22.90;42.60
51613;DHT22;37694;51.748;14.326;2023-03-14T12:14:56;22.90;42.60
51613;DHT22;37694;51.748;14.326;2023-03-14T12:20:04;22.90;42.50
51613;DHT22;37694;51.748;14.326;2023-03-14T12:22:35;22.90;42.60
51613;DHT22;37694;51.748;14.326;2023-03-14T12:35:42;22.90;42.50
51613;DHT22;37694;51.748;14.326;2023-03-14T12:41:24;22.90;42.40
51613;DHT22;37694;51.748;14.326;2023-03-14T12:43:52;22.90;42.50
51613;DHT22;37694;51.748;14.326;2023-03-14T12:48:48;22.90;42.50
51613;DHT22;37694;51.748;14.326;2023-03-14T12:51:17;22.90;42.50
51613;DHT22;37694;51.748;14.326;2023-03-14T13:01:53;22.90;42.30
51613;DHT22;37694;51.748;14.326;2023-03-14T13:04:27;22.80;42.30
51613;DHT22;37694;51.748;14.326;2023-03-14T13:06:58;22.90;42.30
51613;DHT22;37694;51.748;14.326;2023-03-14T13:12:25;22.80;42.20
51613;DHT22;37694;51.748;14.326;2023-03-14T13:14:51;22.80;42.20
51613;DHT22;37694;51.748;14.326;2023-03-14T13:17:25;22.80;42.30
51613;DHT22;37694;51.748;14.326;2023-03-14T13:20:05;22.80;42.30
51613;DHT22;37694;51.748;14.326;2023-03-14T13:22:35;22.80;42.40
51613;DHT22;37694;51.748;14.326;2023-03-14T13:25:07;22.80;43.20
51613;DHT22;37694;51.748;14.326;2023-03-14T13:27:35;22.80;42.40
51613;DHT22;37694;51.748;14.326;2023-03-14T13:32:43;22.80;42.20
51613;DHT22;37694;51.748;14.326;2023-03-14T13:35:25;22.70;42.20
51613;DHT22;37694;51.748;14.326;2023-03-14T13:38:01;22.80;42.20
51613;DHT22;37694;51.748;14.326;2023-03-14T13:40:34;22.70;42.20
51613;DHT22;37694;51.748;14.326;2023-03-14T13:43:03;22.70;42.30
51613;DHT22;37694;51.748;14.326;2023-03-14T13:45:29;22.70;42.30
51613;DHT22;37694;51.748;14.326;2023-03-14T13:47:55;22.70;42.30
51613;DHT22;37694;51.748;14.326;2023-03-14T13:50:21;22.70;42.30
51613;DHT22;37694;51.748;14.326;2023-03-14T13:52:46;22.70;42.30
51613;DHT22;37694;51.748;14.326;2023-03-14T13:55:18;22.70;42.30
51613;DHT22;37694;51.748;14.326;2023-03-14T13:57:53;22.70;42.20
51613;DHT22;37694;51.748;14.326;2023-03-14T14:00:27;22.70;42.10
51613;DHT22;37694;51.748;14.326;2023-03-14T14:02:57;22.70;42.10
51613;DHT22;37694;51.748;14.326;2023-03-14T14:05:27;22.70;42.10
51613;DHT22;37694;51.748;14.326;2023-03-14T14:07:54;22.70;42.20
51613;DHT22;37694;51.748;14.326;2023-03-14T14:10:20;22.70;42.10
51613;DHT22;37694;51.748;14.326;2023-03-14T14:12:55;22.70;42.20
51613;DHT22;37694;51.748;14.326;2023-03-14T14:15:26;22.70;42.10
51613;DHT22;37694;51.748;14.326;2023-03-14T14:17:56;22.70;42.20
51613;DHT22;37694;51.748;14.326;2023-03-14T14:20:37;22.70;42.10
51613;DHT22;37694;51.748;14.326;2023-03-14T14:23:05;22.70;42.10
51613;DHT22;37694;51.748;14.326;2023-03-14T14:25:32;22.70;42.10
51613;DHT22;37694;51.748;14.326;2023-03-14T14:27:58;22.70;42.20
51613;DHT22;37694;51.748;14.326;2023-03-14T14:30:26;22.70;42.10
51613;DHT22;37694;51.748;14.326;2023-03-14T14:32:52;22.70;42.10
51613;DHT22;37694;51.748;14.326;2023-03-14T14:35:33;22.70;42.10
51613;DHT22;37694;51.748;14.326;2023-03-14T14:37:59;22.70;42.00
51613;DHT22;37694;51.748;14.326;2023-03-14T14:40:27;22.70;42.20
51613;DHT22;37694;51.748;14.326;2023-03-14T14:42:54;22.70;42.10
51613;DHT22;37694;51.748;14.326;2023-03-14T14:45:22;22.70;42.10
51613;DHT22;37694;51.748;14.326;2023-03-14T14:53:22;22.70;42.10
51613;DHT22;37694;51.748;14.326;2023-03-14T14:55:55;22.70;42.30
51613;DHT22;37694;51.748;14.326;2023-03-14T14:58:40;22.70;42.20
51613;DHT22;37694;51.748;14.326;2023-03-14T15:01:14;22.70;42.20
51613;DHT22;37694;51.748;14.326;2023-03-14T15:03:43;22.70;42.10
51613;DHT22;37694;51.748;14.326;2023-03-14T15:06:14;22.70;42.20
51613;DHT22;37694;51.748;14.326;2023-03-14T15:08:40;22.60;42.10
51613;DHT22;37694;51.748;14.326;2023-03-14T15:11:16;22.70;42.20
51613;DHT22;37694;51.748;14.326;2023-03-14T15:13:42;22.60;42.10
51613;DHT22;37694;51.748;14.326;2023-03-14T15:16:12;22.60;42.20
51613;DHT22;37694;51.748;14.326;2023-03-14T15:18:39;22.60;42.10
51613;DHT22;37694;51.748;14.326;2023-03-14T15:21:05;22.60;42.20
51613;DHT22;37694;51.748;14.326;2023-03-14T15:23:32;22.60;42.20
51613;DHT22;37694;51.748;14.326;2023-03-14T15:25:57;22.60;42.20
51613;DHT22;37694;51.748;14.326;2023-03-14T15:28:29;22.60;42.20
51613;DHT22;37694;51.748;14.326;2023-03-14T15:30:57;22.60;42.20
51613;DHT22;37694;51.748;14.326;2023-03-14T15:33:24;22.60;42.30
51613;DHT22;37694;51.748;14.326;2023-03-14T15:35:51;22.60;42.30
51613;DHT22;37694;51.748;14.326;2023-03-14T15:38:19;22.60;42.30
51613;DHT22;37694;51.748;14.326;2023-03-14T15:40:46;22.60;42.30
51613;DHT22;37694;51.748;14.326;2023-03-14T15:43:12;22.60;42.30
51613;DHT22;37694;51.748;14.326;2023-03-14T15:45:38;22.50;42.20
51613;DHT22;37694;51.748;14.326;2023-03-14T15:48:04;22.50;42.20
51613;DHT22;37694;51.748;14.326;2023-03-14T15:50:30;22.60;42.20
51613;DHT22;37694;51.748;14.326;2023-03-14T15:52:55;22.60;42.20
51613;DHT22;37694;51.748;14.326;2023-03-14T15:55:22;22.50;42.30
51613;DHT22;37694;51.748;14.326;2023-03-14T15:57:48;22.50;42.30
51613;DHT22;37694;51.748;14.326;2023-03-14T16:00:19;22.50;42.30
51613;DHT22;37694;51.748;14.326;2023-03-14T16:02:47;22.50;42.20
51613;DHT22;37694;51.748;14.326;2023-03-14T16:05:13;22.50;42.20
51613;DHT22;37694;51.748;14.326;2023-03-14T16:07:40;22.50;42.20
51613;DHT22;37694;51.748;14.326;2023-03-14T16:10:07;22.50;42.20
51613;DHT22;37694;51.748;14.326;2023-03-14T16:12:33;22.50;42.20
51613;DHT22;37694;51.748;14.326;2023-03-14T16:15:00;22.50;42.30
51613;DHT22;37694;51.748;14.326;2023-03-14T16:17:25;22.50;42.20
51613;DHT22;37694;51.748;14.326;2023-03-14T16:19:51;22.50;42.20
51613;DHT22;37694;51.748;14.326;2023-03-14T16:22:17;22.50;42.30
51613;DHT22;37694;51.748;14.326;2023-03-14T16:24:43;22.50;42.30
51613;DHT22;37694;51.748;14.326;2023-03-14T16:27:09;22.50;42.20
51613;DHT22;37694;51.748;14.326;2023-03-14T16:29:35;22.50;42.20
51613;DHT22;37694;51.748;14.326;2023-03-14T16:32:00;22.50;42.20
51613;DHT22;37694;51.748;14.326;2023-03-14T16:34:26;22.50;42.20
51613;DHT22;37694;51.748;14.326;2023-03-14T16:36:52;22.50;42.20
51613;DHT22;37694;51.748;14.326;2023-03-14T16:39:18;22.50;42.20